Time;durP1;ratioP1;P1;durP2;ratioP2;P2;SDS_P1;SDS_P2;PMS_P1;PMS_P2;Temp;Humidity;BMP_temperature;BMP_pressure;BME280_temperature;BME280_humidity;BME280_pressure;Samples;Min_cycle;Max_cycle;Signal;HPM_P1;HPM_P2
2021/08/21 00:04:03;;;;;;;8.1;5.7;;;;;;;17.55;100;98779.37;;;;
2021/08/21 00:14:03;;;;;;;7.7;5.1;;;;;;;17.56;100;98774.75;;;;
2021/08/21 00:24:03;;;;;;;11.2;5.9;;;;;;;17.61;100;98788.11;;;;
2021/08/21 00:34:03;;;;;;;8.6;5.6;;;;;;;17.61;100;98796.28;;;;
2021/08/21 00:44:03;;;;;;;8.1;5.2;;;;;;;17.71;100;98798.5;;;;
2021/08/21 00:54:02;;;;;;;6.6;4.5;;;;;;;17.72;100;98793.84;;;;
2021/08/21 01:04:02;;;;;;;8;4.8;;;;;;;17.67;100;98792.16;;;;
2021/08/21 01:14:02;;;;;;;8.7;5.1;;;;;;;17.66;100;98787.86;;;;
2021/08/21 01:24:01;;;;;;;8.7;4.9;;;;;;;17.62;100;98784.25;;;;
2021/08/21 01:34:01;;;;;;;9.4;5.2;;;;;;;17.54;100;98774.25;;;;
2021/08/21 01:44:01;;;;;;;6.8;4.6;;;;;;;17.47;100;98779.51;;;;
2021/08/21 01:54:01;;;;;;;11.5;5.7;;;;;;;17.4;100;98784.77;;;;
2021/08/21 02:04:00;;;;;;;8.4;5.6;;;;;;;16.96;100;98779.25;;;;
2021/08/21 02:14:00;;;;;;;6.8;4.3;;;;;;;16.67;100;98779.52;;;;
2021/08/21 02:24:00;;;;;;;6.8;5;;;;;;;16.45;100;98782.71;;;;
2021/08/21 02:33:59;;;;;;;7.5;5;;;;;;;16.1;100;98785.84;;;;
2021/08/21 02:43:59;;;;;;;8.1;6;;;;;;;15.75;100;98787.4;;;;
2021/08/21 02:53:58;;;;;;;7.2;5.6;;;;;;;15.49;100;98781.42;;;;
2021/08/21 03:03:58;;;;;;;9.5;5.8;;;;;;;15.34;100;98782.8;;;;
2021/08/21 03:13:57;;;;;;;9.9;7.1;;;;;;;14.92;100;98784.77;;;;
2021/08/21 03:23:57;;;;;;;14.6;6.6;;;;;;;14.95;100;98788.74;;;;
2021/08/21 03:33:56;;;;;;;10;5.8;;;;;;;14.89;100;98796.27;;;;
2021/08/21 03:43:55;;;;;;;9.5;5.4;;;;;;;14.77;100;98801.63;;;;
2021/08/21 03:53:55;;;;;;;9.1;6.4;;;;;;;14.71;100;98808.38;;;;
2021/08/21 04:03:54;;;;;;;7.9;5.6;;;;;;;14.72;100;98812.66;;;;
2021/08/21 04:13:53;;;;;;;6.7;5.8;;;;;;;14.88;100;98832.69;;;;
2021/08/21 04:23:53;;;;;;;7.9;4.9;;;;;;;15.07;100;98843.88;;;;
2021/08/21 04:33:52;;;;;;;7.8;6.2;;;;;;;15.39;100;98850.5;;;;
2021/08/21 04:43:52;;;;;;;10.4;6.7;;;;;;;15.76;100;98856.14;;;;
2021/08/21 04:53:51;;;;;;;8.7;5.2;;;;;;;16.03;100;98872.64;;;;
2021/08/21 05:03:51;;;;;;;8.2;5.3;;;;;;;16.39;100;98876.54;;;;
2021/08/21 05:13:50;;;;;;;8.8;4.5;;;;;;;16.78;100;98877.84;;;;
2021/08/21 05:23:50;;;;;;;12;6.4;;;;;;;17.07;100;98892.02;;;;
2021/08/21 05:33:50;;;;;;;9.7;6.3;;;;;;;17.66;100;98913.25;;;;
2021/08/21 05:43:49;;;;;;;10.1;5.3;;;;;;;17.76;100;98923.67;;;;
2021/08/21 05:53:49;;;;;;;8.1;7.1;;;;;;;17.73;100;98929.81;;;;
2021/08/21 06:03:51;;;;;;;16.4;7.5;;;;;;;18.02;100;98932.19;;;;
2021/08/21 06:13:49;;;;;;;12.8;8;;;;;;;17.99;100;98941.06;;;;
2021/08/21 06:23:49;;;;;;;14.5;8.3;;;;;;;18.41;100;98951.55;;;;
2021/08/21 06:33:49;;;;;;;19.1;9.7;;;;;;;18.72;100;98946.14;;;;
2021/08/21 06:43:49;;;;;;;13.1;9.1;;;;;;;18.88;100;98952.39;;;;
2021/08/21 06:53:49;;;;;;;11.2;7.5;;;;;;;19.38;100;98948.09;;;;
2021/08/21 07:03:49;;;;;;;11.5;7.4;;;;;;;19.14;100;98954.58;;;;
2021/08/21 07:13:49;;;;;;;14.4;8.4;;;;;;;19.81;100;98956.12;;;;
2021/08/21 07:23:49;;;;;;;13.8;8.4;;;;;;;20.01;100;98952.22;;;;
2021/08/21 07:33:49;;;;;;;13.1;9.3;;;;;;;20.49;100;98963.71;;;;
2021/08/21 07:43:50;;;;;;;12.4;9;;;;;;;20.87;100;98971.83;;;;
2021/08/21 07:53:50;;;;;;;13.5;9.5;;;;;;;20.8;100;98988.14;;;;
2021/08/21 08:03:50;;;;;;;14.5;8.9;;;;;;;21.57;100;98996.06;;;;
2021/08/21 08:13:50;;;;;;;13.7;8.5;;;;;;;21.53;100;98993.27;;;;
2021/08/21 08:23:52;;;;;;;10.5;5.8;;;;;;;21.33;100;98999.22;;;;
2021/08/21 08:33:51;;;;;;;8.7;6.8;;;;;;;21.62;100;99001.23;;;;
2021/08/21 08:43:52;;;;;;;11.4;7.3;;;;;;;21.78;100;99010.08;;;;
2021/08/21 08:53:52;;;;;;;10.2;6.8;;;;;;;22.02;100;99009.64;;;;
2021/08/21 09:03:52;;;;;;;13.8;8.3;;;;;;;22.06;100;99010.48;;;;
2021/08/21 09:13:53;;;;;;;9;5.2;;;;;;;22.11;100;99005.84;;;;
2021/08/21 09:23:54;;;;;;;6.4;4.6;;;;;;;22.29;100;99012.31;;;;
2021/08/21 09:33:54;;;;;;;12.1;5.2;;;;;;;22.31;100;99015.48;;;;
2021/08/21 09:43:54;;;;;;;7.8;4.7;;;;;;;22.79;100;99006.23;;;;
2021/08/21 09:53:55;;;;;;;9.7;5.8;;;;;;;23.35;100;98994.92;;;;
2021/08/21 10:03:56;;;;;;;5.8;3.6;;;;;;;23.76;100;98995.59;;;;
2021/08/21 10:13:56;;;;;;;6.9;4.3;;;;;;;24.37;98.53418;98993.91;;;;
2021/08/21 10:23:57;;;;;;;7.1;4.3;;;;;;;24.47;92.74414;98999.45;;;;
2021/08/21 10:33:58;;;;;;;7;4.1;;;;;;;25.07;95.4541;98990.52;;;;
2021/08/21 10:43:59;;;;;;;9.3;5.8;;;;;;;24.31;93.12891;99000.98;;;;
2021/08/21 10:54:00;;;;;;;7.7;4.3;;;;;;;23.55;97.67383;98989.97;;;;
2021/08/21 11:04:00;;;;;;;12.5;5.1;;;;;;;23.79;100;98983.81;;;;
2021/08/21 11:14:02;;;;;;;8.2;4.5;;;;;;;23.73;99.10059;98977.11;;;;
2021/08/21 11:24:15;;;;;;;7.1;4.3;;;;;;;24;93.06445;98972.91;;;;
2021/08/21 11:34:07;;;;;;;6.1;4.5;;;;;;;23.9;93.46094;98968.14;;;;
2021/08/21 11:44:08;;;;;;;7.3;4.4;;;;;;;23.98;93.54492;98968.97;;;;
2021/08/21 11:54:03;;;;;;;7.3;4.6;;;;;;;23.86;85.98047;98972.84;;;;
2021/08/21 12:14:05;;;;;;;6.7;3.8;;;;;;;24.14;78.89941;98952.13;;;;
2021/08/21 12:24:05;;;;;;;6.3;4;;;;;;;24.11;77.75293;98950.13;;;;
2021/08/21 12:34:06;;;;;;;6;3.9;;;;;;;24.04;80.13867;98946.17;;;;
2021/08/21 12:44:07;;;;;;;6.2;4.2;;;;;;;24.23;81.64746;98944.27;;;;
2021/08/21 12:54:07;;;;;;;12.9;3.2;;;;;;;23.91;81.83398;98933.14;;;;
2021/08/21 13:04:08;;;;;;;7.3;3.7;;;;;;;24.22;78.36816;98935.25;;;;
2021/08/21 13:14:08;;;;;;;8.1;3.8;;;;;;;24.6;77.59473;98930.2;;;;
2021/08/21 13:24:09;;;;;;;8.2;4.1;;;;;;;24.72;75.70508;98930.59;;;;
2021/08/21 13:34:10;;;;;;;7.8;4.6;;;;;;;24.35;81.83203;98922.68;;;;
2021/08/21 13:44:11;;;;;;;6.8;4.5;;;;;;;25.01;76.01074;98929.45;;;;
2021/08/21 13:54:11;;;;;;;7.5;4.1;;;;;;;25.04;73.51758;98914.08;;;;
2021/08/21 14:04:12;;;;;;;12.4;5.4;;;;;;;25.5;65.55664;98909.3;;;;
2021/08/21 14:14:13;;;;;;;6.6;4.3;;;;;;;25.72;68.38672;98917.52;;;;
2021/08/21 14:24:14;;;;;;;8;4.4;;;;;;;25.61;69.48145;98916.76;;;;
2021/08/21 14:34:15;;;;;;;7.1;4.3;;;;;;;25.81;67.4873;98904.84;;;;
2021/08/21 14:44:15;;;;;;;8.1;4.6;;;;;;;25.99;68.18262;98907.53;;;;
2021/08/21 14:54:16;;;;;;;7.4;4.6;;;;;;;25.8;69.34766;98899.71;;;;
2021/08/21 15:04:17;;;;;;;11.9;6.8;;;;;;;25.84;66.49512;98892.2;;;;
2021/08/21 15:14:18;;;;;;;7;5.5;;;;;;;26.06;70.82715;98895.66;;;;
2021/08/21 15:24:19;;;;;;;5.2;3.6;;;;;;;27.99;58.77344;98886.8;;;;
2021/08/21 15:34:20;;;;;;;9.4;6.8;;;;;;;29.7;51.71484;98886.36;;;;
2021/08/21 15:44:21;;;;;;;10.7;7.2;;;;;;;30.38;47.36719;98886.47;;;;
2021/08/21 15:54:22;;;;;;;10;7.2;;;;;;;30.74;44.80762;98892;;;;
2021/08/21 16:04:24;;;;;;;27.2;21.9;;;;;;;30.92;46.05273;98878.43;;;;
2021/08/21 16:14:25;;;;;;;43.9;32;;;;;;;30.43;44.2168;98872.09;;;;
2021/08/21 16:24:27;;;;;;;27.1;23.4;;;;;;;28.63;50.70508;98864.49;;;;
2021/08/21 16:34:28;;;;;;;13.1;7.5;;;;;;;26.66;58.62598;98871.17;;;;
2021/08/21 16:44:29;;;;;;;18;12.8;;;;;;;25.25;66.37402;98858.08;;;;
2021/08/21 16:54:30;;;;;;;11;7.1;;;;;;;24.2;79.14258;98859.67;;;;
2021/08/21 17:04:31;;;;;;;9.8;6.3;;;;;;;23.24;86.44141;98859.28;;;;
2021/08/21 17:14:31;;;;;;;9.6;5.9;;;;;;;22.37;94.82617;98871.17;;;;
2021/08/21 17:24:31;;;;;;;11;5.8;;;;;;;21.72;96.00293;98868.9;;;;
2021/08/21 17:34:32;;;;;;;11.1;7.1;;;;;;;21;100;98876.5;;;;
2021/08/21 17:44:32;;;;;;;12.4;7.8;;;;;;;20.25;100;98884.63;;;;
2021/08/21 17:54:32;;;;;;;13.7;8.9;;;;;;;19.67;100;98881.98;;;;
2021/08/21 18:04:32;;;;;;;11.4;7.2;;;;;;;19.06;100;98890.78;;;;
2021/08/21 18:14:32;;;;;;;11.4;9.6;;;;;;;18.56;100;98901.67;;;;
2021/08/21 18:24:32;;;;;;;12.7;9.1;;;;;;;17.92;100;98915.52;;;;
2021/08/21 18:34:32;;;;;;;11.8;9.1;;;;;;;17.61;100;98918.94;;;;
2021/08/21 18:44:32;;;;;;;13.6;10.5;;;;;;;17.34;100;98925.11;;;;
2021/08/21 18:54:32;;;;;;;12.5;8.6;;;;;;;17.05;100;98923.43;;;;
2021/08/21 19:04:31;;;;;;;12.3;9.3;;;;;;;16.78;100;98929.56;;;;
2021/08/21 19:14:31;;;;;;;16.5;8.5;;;;;;;16.46;100;98928.47;;;;
2021/08/21 19:24:31;;;;;;;17.5;12.5;;;;;;;16.2;100;98928.77;;;;
2021/08/21 19:34:31;;;;;;;23.5;16.7;;;;;;;15.92;100;98942.16;;;;
2021/08/21 19:44:30;;;;;;;23.7;17.6;;;;;;;15.67;100;98935;;;;
2021/08/21 19:54:29;;;;;;;12.8;10.4;;;;;;;15.57;100;98932.69;;;;
2021/08/21 20:04:29;;;;;;;25.7;13;;;;;;;15.36;100;98934.56;;;;
2021/08/21 20:14:28;;;;;;;37.6;29.6;;;;;;;15.25;100;98934.16;;;;
2021/08/21 20:24:28;;;;;;;22.2;19.8;;;;;;;15.1;100;98935.52;;;;
2021/08/21 20:34:27;;;;;;;18.3;14.4;;;;;;;14.9;100;98928.13;;;;
2021/08/21 20:44:27;;;;;;;19.1;13.6;;;;;;;14.81;100;98932.02;;;;
2021/08/21 20:54:26;;;;;;;11.2;9.9;;;;;;;14.74;100;98940.67;;;;
2021/08/21 21:04:25;;;;;;;15.8;13.2;;;;;;;14.61;100;98938.97;;;;
2021/08/21 21:14:25;;;;;;;17.9;13.3;;;;;;;14.44;100;98942.52;;;;
2021/08/21 21:24:24;;;;;;;21.6;16.2;;;;;;;14.25;100;98930.42;;;;
2021/08/21 21:34:23;;;;;;;21.2;17;;;;;;;14.17;100;98940.16;;;;
2021/08/21 21:44:22;;;;;;;13;11.6;;;;;;;14.07;100;98945.92;;;;
2021/08/21 21:54:22;;;;;;;14.7;13.2;;;;;;;13.93;100;98951.52;;;;
2021/08/21 22:04:21;;;;;;;17.3;12.3;;;;;;;13.8;100;98944.36;;;;
2021/08/21 22:14:20;;;;;;;23.6;14.3;;;;;;;13.66;100;98937.51;;;;
2021/08/21 22:24:20;;;;;;;15.5;13.1;;;;;;;13.55;100;98929.7;;;;
2021/08/21 22:34:19;;;;;;;18.7;14.7;;;;;;;13.51;100;98934.16;;;;
2021/08/21 22:44:18;;;;;;;16.2;11.9;;;;;;;13.32;100;98928.27;;;;
2021/08/21 22:54:17;;;;;;;14.9;13.3;;;;;;;13.3;100;98929.67;;;;
2021/08/21 23:04:17;;;;;;;16;13.3;;;;;;;13.13;100;98918.81;;;;
2021/08/21 23:14:16;;;;;;;16.8;13.8;;;;;;;13.1;100;98915.64;;;;
2021/08/21 23:24:15;;;;;;;18.6;16.6;;;;;;;13.03;100;98909.87;;;;
2021/08/21 23:34:14;;;;;;;16.8;15;;;;;;;12.94;100;98911.77;;;;
2021/08/21 23:44:13;;;;;;;17.5;15.6;;;;;;;12.84;100;98908.55;;;;
2021/08/21 23:54:13;;;;;;;21.7;13.2;;;;;;;12.84;100;98906.63;;;;
